Time;durP1;ratioP1;P1;durP2;ratioP2;P2;SDS_P1;SDS_P2;PMS_P1;PMS_P2;Temp;Humidity;BMP_temperature;BMP_pressure;BME280_temperature;BME280_humidity;BME280_pressure;Samples;Min_cycle;Max_cycle;Signal;HPM_P1;HPM_P2
2021/04/04 04:02:55;;;;;;;7.63;3.92;;;1.10;95.40;;;;;;4861928;23;87060;-88
2021/04/04 04:05:24;;;;;;;7.43;4.07;;;1.10;95.80;;;;;;4858931;29;87806;-88
2021/04/04 04:07:51;;;;;;;6.50;3.85;;;1.00;95.50;;;;;;4852334;29;85783;-89
2021/04/04 04:10:18;;;;;;;6.75;3.83;;;1.00;95.50;;;;;;4851906;29;86713;-88
2021/04/04 04:12:45;;;;;;;6.82;4.40;;;1.00;95.30;;;;;;4833378;29;89912;-88
2021/04/04 04:15:18;;;;;;;7.07;4.45;;;1.00;95.50;;;;;;4834064;29;90173;-88
2021/04/04 04:17:46;;;;;;;7.78;3.78;;;1.00;95.70;;;;;;4852253;29;87226;-88
2021/04/04 04:20:13;;;;;;;9.98;6.50;;;1.00;95.70;;;;;;4851903;29;86485;-88
2021/04/04 04:22:40;;;;;;;11.23;6.82;;;0.90;95.20;;;;;;4834870;29;90173;-88
2021/04/04 04:25:09;;;;;;;7.35;5.13;;;0.90;95.70;;;;;;4817102;29;90379;-89
2021/04/04 04:27:36;;;;;;;8.98;6.28;;;0.80;96.20;;;;;;4833076;29;86773;-89
2021/04/04 04:30:04;;;;;;;10.27;8.35;;;0.80;96.40;;;;;;4816943;29;86411;-88
2021/04/04 04:32:34;;;;;;;7.10;4.85;;;0.70;98.70;;;;;;4822583;29;90219;-88
2021/04/04 04:35:01;;;;;;;8.80;4.90;;;0.70;98.60;;;;;;4815804;29;91106;-88
2021/04/04 04:37:30;;;;;;;7.07;4.38;;;0.70;98.20;;;;;;4847652;29;86547;-88
2021/04/04 04:39:57;;;;;;;9.30;4.75;;;0.70;98.20;;;;;;4833807;29;87907;-88
2021/04/04 04:42:25;;;;;;;6.85;3.88;;;0.70;98.40;;;;;;4853164;29;87193;-88
2021/04/04 04:44:52;;;;;;;10.18;4.47;;;0.70;99.20;;;;;;4854959;29;86489;-88
2021/04/04 04:47:18;;;;;;;5.65;4.05;;;;;;;;;;4849323;29;86672;-88
2021/04/04 04:49:44;;;;;;;9.57;5.50;;;0.70;99.90;;;;;;4866563;29;86991;-88
2021/04/04 04:52:14;;;;;;;6.43;3.50;;;0.60;99.80;;;;;;4867951;29;87504;-88
2021/04/04 04:54:43;;;;;;;7.50;3.35;;;0.70;99.40;;;;;;4858142;29;90476;-88
2021/04/04 04:57:11;;;;;;;6.60;3.55;;;0.70;99.00;;;;;;4849717;29;86236;-89
2021/04/04 04:59:38;;;;;;;8.48;4.38;;;0.60;99.60;;;;;;4849980;29;86274;-89
2021/04/04 05:02:06;;;;;;;9.55;4.95;;;0.60;99.60;;;;;;4871131;29;86627;-89
2021/04/04 05:04:32;;;;;;;8.40;4.55;;;;;;;;;;4872065;29;87964;-88
2021/04/04 05:07:00;;;;;;;6.72;4.10;;;0.70;99.50;;;;;;4863939;29;87055;-89
2021/04/04 05:09:27;;;;;;;8.18;4.65;;;0.60;99.20;;;;;;4859475;29;86423;-89
2021/04/04 05:11:54;;;;;;;7.93;4.40;;;0.70;99.10;;;;;;4838814;29;90508;-88
2021/04/04 05:14:20;;;;;;;5.65;4.28;;;0.60;99.20;;;;;;4854853;29;87499;-88
2021/04/04 05:16:47;;;;;;;8.80;4.15;;;0.70;98.90;;;;;;4855510;29;87003;-88
2021/04/04 05:19:13;;;;;;;9.57;4.75;;;0.70;98.90;;;;;;4837540;29;87073;-88
2021/04/04 05:21:42;;;;;;;9.60;4.10;;;0.80;99.10;;;;;;4856446;29;87535;-88
2021/04/04 05:24:13;;;;;;;7.60;4.55;;;0.70;99.50;;;;;;4855910;29;86654;-88
2021/04/04 05:26:42;;;;;;;6.00;3.88;;;0.80;99.30;;;;;;4855649;29;86892;-89
2021/04/04 05:29:09;;;;;;;6.43;4.15;;;0.90;99.00;;;;;;4855779;29;87816;-89
2021/04/04 05:31:54;;;;;;;9.18;4.72;;;1.00;99.20;;;;;;4837735;29;89439;-89
2021/04/04 05:34:22;;;;;;;11.80;4.97;;;1.00;99.00;;;;;;4837703;29;91710;-88
2021/04/04 05:36:54;;;;;;;9.20;4.65;;;1.00;99.20;;;;;;4835436;29;86913;-88
2021/04/04 05:39:21;;;;;;;11.95;5.53;;;1.10;99.40;;;;;;4832335;29;87030;-88
2021/04/04 05:41:50;;;;;;;9.77;5.82;;;1.10;99.10;;;;;;4850720;29;87367;-88
2021/04/04 05:44:20;;;;;;;16.50;9.52;;;1.20;99.50;;;;;;4834446;29;87389;-87
2021/04/04 05:46:54;;;;;;;18.67;9.13;;;1.20;99.80;;;;;;4837709;29;85939;-87
2021/04/04 05:49:39;;;;;;;17.90;8.95;;;1.30;99.90;;;;;;4832118;29;86589;-85
2021/04/04 05:52:17;;;;;;;12.52;8.05;;;1.40;99.90;;;;;;4831726;29;90059;-88
2021/04/04 05:55:20;;;;;;;11.63;6.85;;;1.40;99.90;;;;;;4846606;29;89749;-87
2021/04/04 05:57:54;;;;;;;12.20;6.55;;;1.70;99.90;;;;;;4854813;29;86368;-89
2021/04/04 06:00:22;;;;;;;11.50;6.75;;;2.10;99.90;;;;;;4833938;29;86921;-89
2021/04/04 06:03:13;;;;;;;13.88;6.07;;;1.80;99.90;;;;;;4851574;29;88437;-88
2021/04/04 06:06:07;;;;;;;13.13;6.32;;;2.00;99.90;;;;;;4844184;29;87820;-89
2021/04/04 06:08:57;;;;;;;10.18;5.57;;;2.10;99.90;;;;;;4819949;29;87054;-89
2021/04/04 06:11:52;;;;;;;12.43;6.77;;;2.10;99.90;;;;;;4822269;29;86979;-88
2021/04/04 06:14:49;;;;;;;10.63;5.55;;;2.30;99.50;;;;;;4831216;29;87512;-89
2021/04/04 06:17:27;;;;;;;11.35;6.28;;;2.40;99.00;;;;;;4842785;29;87619;-90
2021/04/04 06:20:15;;;;;;;14.68;5.82;;;2.60;98.90;;;;;;4852739;29;86684;-89
2021/04/04 06:22:53;;;;;;;8.43;5.22;;;2.70;98.40;;;;;;4841689;29;88068;-90
2021/04/04 06:26:17;;;;;;;10.48;6.22;;;2.80;98.30;;;;;;4828470;29;90898;-89
2021/04/04 06:28:51;;;;;;;12.25;6.05;;;3.00;97.50;;;;;;4764515;29;87381;-89
2021/04/04 06:31:43;;;;;;;11.00;6.25;;;3.10;97.90;;;;;;4847177;29;86862;-89
2021/04/04 06:34:17;;;;;;;8.55;5.40;;;3.30;97.40;;;;;;4843816;29;86329;-88
2021/04/04 06:36:46;;;;;;;11.20;5.50;;;3.70;96.90;;;;;;4850464;29;90418;-89
2021/04/04 06:39:44;;;;;;;7.03;4.90;;;3.60;97.00;;;;;;4834333;29;86928;-89
2021/04/04 06:42:14;;;;;;;7.75;4.63;;;4.00;96.40;;;;;;4834654;29;86307;-88
2021/04/04 06:45:06;;;;;;;6.67;4.63;;;4.40;94.30;;;;;;4851622;29;86817;-90
2021/04/04 06:47:35;;;;;;;9.45;5.65;;;7.60;88.60;;;;;;4821933;29;89282;-89
2021/04/04 06:52:48;;;;;;;10.32;4.95;;;11.90;64.00;;;;;;5275590;23;89524;-91
2021/04/04 06:55:48;;;;;;;6.65;4.57;;;12.00;62.60;;;;;;4792449;29;86950;-92
2021/04/04 06:58:57;;;;;;;7.07;4.88;;;14.10;53.30;;;;;;4779034;29;87567;-90
2021/04/04 07:01:47;;;;;;;6.57;4.80;;;16.50;44.40;;;;;;4790891;29;87956;-89
2021/04/04 07:04:30;;;;;;;7.38;4.72;;;17.10;39.70;;;;;;4795491;29;86825;-92
2021/04/04 07:18:22;;;;;;;7.15;4.55;;;21.50;35.10;;;;;;4799779;29;86580;-90
2021/04/04 07:24:35;;;;;;;7.82;5.28;;;23.10;31.40;;;;;;4711877;29;86332;-93
2021/04/04 07:30:37;;;;;;;6.78;5.10;;;23.60;29.30;;;;;;4707046;30;86545;-94
2021/04/04 07:33:48;;;;;;;6.80;4.78;;;23.60;29.50;;;;;;4695413;30;86368;-93
2021/04/04 07:36:53;;;;;;;6.22;4.70;;;23.70;28.00;;;;;;4754285;29;87967;-92
2021/04/04 07:39:38;;;;;;;6.03;4.63;;;23.70;28.70;;;;;;4745764;29;88085;-91
2021/04/04 07:48:42;;;;;;;6.35;5.40;;;24.50;27.20;;;;;;4747219;29;87230;-88
2021/04/04 07:51:24;;;;;;;6.45;4.72;;;24.60;28.00;;;;;;4757425;29;88540;-90
2021/04/04 07:54:10;;;;;;;6.38;5.25;;;24.70;28.20;;;;;;4766838;29;87205;-92
2021/04/04 07:57:19;;;;;;;6.72;5.10;;;24.60;27.40;;;;;;4777435;29;87022;-91
2021/04/04 07:59:47;;;;;;;6.15;5.15;;;25.80;27.20;;;;;;4800588;29;87828;-87
2021/04/04 08:02:30;;;;;;;8.20;5.32;;;26.60;26.50;;;;;;4799087;29;89485;-90
2021/04/04 08:05:04;;;;;;;6.80;6.13;;;26.20;28.40;;;;;;4810517;29;86576;-88
2021/04/04 08:07:41;;;;;;;12.07;8.20;;;25.80;26.60;;;;;;4817254;29;86577;-90
2021/04/04 08:10:31;;;;;;;11.55;7.93;;;27.10;28.20;;;;;;4814323;29;87711;-90
2021/04/04 08:13:06;;;;;;;22.33;11.90;;;27.20;26.20;;;;;;4796886;29;87164;-91
2021/04/04 08:15:45;;;;;;;25.40;13.45;;;28.20;26.20;;;;;;4812710;29;86727;-89
2021/04/04 08:18:11;;;;;;;11.43;6.93;;;28.40;26.30;;;;;;4815679;29;87772;-89
2021/04/04 08:20:45;;;;;;;7.88;6.60;;;29.50;24.60;;;;;;4815156;29;88054;-89
2021/04/04 08:23:26;;;;;;;7.75;5.78;;;29.60;24.80;;;;;;4819602;29;86684;-89
2021/04/04 08:26:00;;;;;;;9.27;7.10;;;30.70;24.40;;;;;;4818198;29;86943;-90
2021/04/04 08:28:42;;;;;;;8.75;5.90;;;30.70;24.10;;;;;;4820277;29;87245;-87
2021/04/04 08:31:22;;;;;;;6.82;6.13;;;31.20;24.20;;;;;;4816070;29;87117;-87
2021/04/04 08:33:52;;;;;;;5.93;5.30;;;32.00;23.60;;;;;;4806997;29;87372;-88
2021/04/04 08:36:22;;;;;;;5.78;5.18;;;31.40;23.70;;;;;;4795436;29;86371;-90
2021/04/04 08:38:50;;;;;;;6.78;6.18;;;33.00;22.50;;;;;;4808214;29;86484;-89
2021/04/04 08:41:19;;;;;;;9.88;6.30;;;32.80;23.10;;;;;;4825418;29;89183;-88
2021/04/04 08:44:01;;;;;;;7.80;5.97;;;32.60;23.40;;;;;;4836311;29;87481;-89
2021/04/04 08:46:41;;;;;;;7.82;7.13;;;33.10;23.60;;;;;;4829344;29;87086;-90
2021/04/04 08:49:07;;;;;;;;;;;34.30;22.90;;;;;;4836262;29;86186;-91
2021/04/04 08:51:38;;;;;;;7.03;5.13;;;34.70;22.70;;;;;;4836522;29;87547;-91
2021/04/04 08:54:13;;;;;;;6.03;5.43;;;35.50;22.40;;;;;;4836061;29;88760;-89
2021/04/04 08:56:42;;;;;;;6.53;5.20;;;35.80;22.30;;;;;;4825333;29;86360;-87
2021/04/04 08:59:08;;;;;;;7.00;6.40;;;36.50;22.20;;;;;;4815836;29;86605;-90
2021/04/04 09:01:38;;;;;;;5.82;4.85;;;36.80;21.80;;;;;;4814996;29;86951;-87
2021/04/04 09:04:08;;;;;;;7.05;6.45;;;36.90;20.70;;;;;;4816273;29;86909;-88
2021/04/04 09:06:42;;;;;;;7.15;5.88;;;35.70;21.40;;;;;;4797824;29;87125;-86
2021/04/04 09:09:19;;;;;;;7.47;5.53;;;35.90;21.00;;;;;;4832979;29;87587;-86
2021/04/04 09:11:48;;;;;;;9.00;7.93;;;36.40;21.20;;;;;;4816709;29;89076;-87
2021/04/04 09:14:18;;;;;;;18.65;12.00;;;37.40;21.80;;;;;;4829320;29;87380;-88
2021/04/04 09:17:00;;;;;;;16.20;10.35;;;38.10;21.30;;;;;;4834616;29;86095;-87
2021/04/04 09:19:41;;;;;;;15.27;10.43;;;38.70;21.00;;;;;;4826986;29;86227;-87
2021/04/04 09:22:23;;;;;;;12.00;10.00;;;39.00;20.40;;;;;;4826870;29;87744;-86
2021/04/04 09:24:59;;;;;;;11.70;10.18;;;38.00;21.00;;;;;;4826259;29;86826;-87
2021/04/04 09:27:39;;;;;;;10.80;7.57;;;38.20;20.90;;;;;;4824875;29;85461;-86
2021/04/04 09:30:23;;;;;;;10.50;8.75;;;38.80;20.20;;;;;;4826026;29;86699;-85
2021/04/04 09:33:00;;;;;;;13.15;9.07;;;38.10;19.80;;;;;;4822312;29;87584;-86
2021/04/04 09:35:26;;;;;;;19.70;13.80;;;37.50;19.90;;;;;;4821422;29;87885;-86
2021/04/04 09:38:01;;;;;;;11.52;8.85;;;37.60;20.40;;;;;;4814050;29;86997;-88
2021/04/04 09:40:27;;;;;;;11.68;7.93;;;38.30;19.80;;;;;;4816537;29;86714;-88
2021/04/04 09:42:54;;;;;;;10.57;7.88;;;38.60;20.40;;;;;;4814011;29;88227;-86
2021/04/04 09:45:24;;;;;;;9.90;7.75;;;39.00;20.40;;;;;;4813959;29;86843;-88
2021/04/04 09:47:51;;;;;;;9.13;7.18;;;39.30;19.90;;;;;;4815048;29;87104;-86
2021/04/04 09:50:22;;;;;;;5.80;5.30;;;39.60;19.70;;;;;;4815095;29;86951;-86
2021/04/04 09:52:48;;;;;;;6.07;5.57;;;39.70;19.50;;;;;;4810337;29;88895;-86
2021/04/04 09:55:18;;;;;;;6.43;5.93;;;40.20;19.50;;;;;;4815037;29;86953;-86
2021/04/04 09:57:52;;;;;;;6.90;6.20;;;40.40;19.20;;;;;;4798716;29;86878;-87
2021/04/04 10:00:30;;;;;;;7.47;6.53;;;40.20;19.40;;;;;;4814907;29;88028;-87
2021/04/04 10:02:57;;;;;;;6.90;6.30;;;40.60;19.60;;;;;;4814378;29;87559;-87
2021/04/04 10:05:29;;;;;;;6.47;5.95;;;40.80;19.80;;;;;;4797739;29;88420;-87
2021/04/04 10:08:05;;;;;;;6.50;5.75;;;41.20;19.60;;;;;;4796815;29;86827;-87
2021/04/04 10:10:31;;;;;;;7.20;6.22;;;41.00;19.70;;;;;;4814636;29;86566;-87
2021/04/04 10:13:01;;;;;;;7.07;6.40;;;41.30;19.80;;;;;;4819700;29;86941;-86
2021/04/04 10:15:28;;;;;;;7.43;6.72;;;41.00;19.70;;;;;;4815079;29;86768;-87
2021/04/04 10:17:58;;;;;;;5.53;5.03;;;41.00;19.60;;;;;;4815201;29;86149;-87
2021/04/04 10:20:51;;;;;;;6.85;6.25;;;40.80;19.40;;;;;;4814122;29;87691;-87
2021/04/04 10:23:18;;;;;;;6.90;6.40;;;41.20;18.90;;;;;;4812862;29;89814;-87
2021/04/04 10:26:03;;;;;;;7.20;6.60;;;41.30;19.20;;;;;;4814055;29;87955;-87
2021/04/04 10:28:46;;;;;;;6.28;5.80;;;40.80;19.10;;;;;;4814446;29;86978;-86
2021/04/04 10:31:13;;;;;;;6.35;5.85;;;39.90;19.30;;;;;;4814428;29;86268;-87
2021/04/04 10:33:39;;;;;;;6.40;5.90;;;39.30;19.10;;;;;;4814531;29;86836;-86
2021/04/04 10:36:17;;;;;;;6.50;5.78;;;38.80;19.90;;;;;;4814794;29;87078;-86
2021/04/04 10:38:44;;;;;;;5.90;5.50;;;39.20;19.90;;;;;;4811214;29;86935;-87
2021/04/04 10:41:09;;;;;;;5.78;5.38;;;39.70;19.80;;;;;;4813996;29;86601;-87
2021/04/04 10:43:45;;;;;;;6.40;5.90;;;40.10;19.30;;;;;;4813996;29;87955;-87
2021/04/04 10:46:22;;;;;;;6.40;5.85;;;40.10;19.60;;;;;;4798039;29;87604;-87
2021/04/04 10:48:49;;;;;;;5.97;5.57;;;39.70;19.40;;;;;;4814792;29;86815;-87
2021/04/04 10:51:17;;;;;;;5.85;5.45;;;40.20;19.30;;;;;;4812533;29;88005;-86
2021/04/04 10:53:44;;;;;;;6.00;5.50;;;40.20;19.80;;;;;;4813352;29;87284;-87
2021/04/04 10:56:11;;;;;;;6.47;5.85;;;40.70;19.20;;;;;;4813550;29;87443;-87
2021/04/04 10:58:37;;;;;;;5.63;5.22;;;40.80;18.60;;;;;;4813700;29;86738;-87
2021/04/04 11:01:05;;;;;;;6.03;5.43;;;40.80;19.10;;;;;;4812929;29;87096;-87
2021/04/04 11:03:32;;;;;;;5.55;5.15;;;40.70;19.10;;;;;;4813175;29;88310;-87
2021/04/04 11:05:58;;;;;;;5.35;5.05;;;41.00;19.30;;;;;;4814598;29;87015;-87
2021/04/04 11:08:24;;;;;;;6.00;5.50;;;41.10;19.50;;;;;;4811752;29;86496;-86
2021/04/04 11:10:51;;;;;;;5.88;5.47;;;40.20;19.10;;;;;;4813230;29;87172;-87
2021/04/04 11:13:18;;;;;;;5.70;5.30;;;39.80;19.60;;;;;;4810287;29;88471;-86
2021/04/04 11:15:53;;;;;;;5.38;5.07;;;40.00;19.40;;;;;;4812906;29;88354;-87
2021/04/04 11:18:45;;;;;;;5.45;5.05;;;40.40;19.30;;;;;;4814060;29;86997;-87
2021/04/04 11:21:24;;;;;;;5.32;5.03;;;40.30;19.20;;;;;;4813603;29;86611;-87
2021/04/04 11:23:50;;;;;;;5.20;4.90;;;39.80;19.20;;;;;;4813052;29;87195;-87
2021/04/04 11:26:27;;;;;;;5.53;5.10;;;39.60;19.00;;;;;;4813990;29;87279;-87
2021/04/04 11:29:14;;;;;;;5.60;5.10;;;39.80;18.60;;;;;;4813475;29;86899;-87
2021/04/04 11:32:07;;;;;;;5.70;5.30;;;39.50;19.30;;;;;;4815963;29;86993;-87
2021/04/04 11:34:35;;;;;;;5.88;5.38;;;39.70;18.50;;;;;;4810008;29;86201;-87
2021/04/04 11:37:03;;;;;;;5.32;4.93;;;38.40;19.30;;;;;;4799903;29;86831;-87
2021/04/04 11:39:29;;;;;;;5.18;4.80;;;38.10;19.30;;;;;;4799669;29;86872;-87
2021/04/04 11:41:57;;;;;;;5.32;4.93;;;38.80;19.00;;;;;;4812190;29;87951;-87
2021/04/04 11:44:25;;;;;;;5.13;4.82;;;39.00;19.70;;;;;;4807775;29;86933;-87
2021/04/04 11:47:01;;;;;;;5.47;5.00;;;39.40;19.30;;;;;;4813144;29;87039;-87
2021/04/04 11:49:33;;;;;;;5.32;4.93;;;38.80;18.80;;;;;;4812343;29;86873;-87
2021/04/04 11:52:18;;;;;;;5.10;4.70;;;39.30;19.20;;;;;;4811514;29;87106;-87
2021/04/04 11:54:50;;;;;;;5.80;5.20;;;39.80;19.00;;;;;;4794116;29;87398;-87
2021/04/04 11:57:24;;;;;;;5.30;5.00;;;39.50;18.80;;;;;;4809586;29;86715;-87
2021/04/04 11:59:57;;;;;;;5.63;5.22;;;39.40;18.80;;;;;;4813429;29;86234;-87
2021/04/04 12:02:24;;;;;;;5.85;5.45;;;39.50;19.20;;;;;;4812528;29;86878;-86
2021/04/04 12:05:11;;;;;;;5.47;5.07;;;39.20;19.10;;;;;;4812348;29;86891;-86
2021/04/04 12:07:50;;;;;;;6.13;5.47;;;38.20;19.40;;;;;;4812586;29;87992;-87
2021/04/04 12:10:19;;;;;;;5.18;4.82;;;38.30;19.20;;;;;;4810730;29;87357;-87
2021/04/04 12:12:46;;;;;;;5.78;5.25;;;37.90;19.90;;;;;;4795527;29;87027;-87
2021/04/04 12:15:13;;;;;;;5.53;5.05;;;37.30;20.10;;;;;;4811688;29;88184;-87
2021/04/04 12:17:48;;;;;;;5.47;5.03;;;36.30;19.80;;;;;;4812551;29;86997;-87
2021/04/04 12:20:15;;;;;;;5.80;5.30;;;36.70;19.90;;;;;;4812479;29;87304;-88
2021/04/04 12:22:45;;;;;;;5.30;5.00;;;36.60;19.60;;;;;;4811813;29;86838;-87
2021/04/04 12:25:22;;;;;;;5.95;5.40;;;36.40;19.30;;;;;;4811645;29;86311;-88
2021/04/04 12:27:50;;;;;;;5.30;5.00;;;35.30;20.20;;;;;;4811317;29;86863;-86
2021/04/04 12:30:23;;;;;;;5.25;4.85;;;35.20;20.30;;;;;;4811800;29;86927;-87
2021/04/04 12:33:09;;;;;;;5.05;4.75;;;34.80;20.30;;;;;;4821945;29;87893;-89
2021/04/04 12:35:37;;;;;;;5.25;4.65;;;35.00;20.00;;;;;;4824349;29;87184;-87
2021/04/04 12:38:04;;;;;;;4.90;4.60;;;34.70;20.20;;;;;;4809164;29;86928;-87
2021/04/04 12:40:30;;;;;;;5.35;4.85;;;35.30;19.80;;;;;;4809624;29;86993;-87
2021/04/04 12:43:01;;;;;;;5.18;4.75;;;35.70;20.00;;;;;;4812008;29;87261;-87
2021/04/04 12:45:33;;;;;;;5.40;4.93;;;35.60;19.60;;;;;;4795167;29;88305;-87
2021/04/04 12:48:00;;;;;;;5.80;5.30;;;35.20;20.20;;;;;;4795190;29;91392;-87
2021/04/04 12:50:26;;;;;;;5.38;4.93;;;35.40;19.90;;;;;;4813251;29;86202;-87
2021/04/04 12:52:53;;;;;;;5.20;4.70;;;35.30;20.30;;;;;;4811535;29;87220;-87
2021/04/04 12:55:21;;;;;;;6.03;5.55;;;35.10;20.10;;;;;;4811627;29;87725;-87
2021/04/04 12:58:08;;;;;;;5.50;5.00;;;35.20;20.20;;;;;;4811156;29;87996;-87
2021/04/04 13:00:40;;;;;;;5.07;4.75;;;35.20;20.50;;;;;;4811518;29;87249;-86
2021/04/04 13:03:13;;;;;;;5.30;4.90;;;34.30;20.20;;;;;;4814225;29;87087;-87
2021/04/04 13:05:43;;;;;;;5.30;4.90;;;33.80;20.20;;;;;;4814697;29;87405;-88
2021/04/04 13:08:13;;;;;;;;;;;32.50;20.80;;;;;;4818972;29;86969;-87
2021/04/04 13:10:39;;;;;;;;;;;32.50;21.00;;;;;;4810444;29;86239;-87
2021/04/04 13:13:13;;;;;;;5.15;4.75;;;32.40;20.60;;;;;;4817168;29;87077;-88
2021/04/04 13:15:39;;;;;;;5.47;4.50;;;31.60;20.40;;;;;;4819047;29;86281;-87
2021/04/04 13:18:05;;;;;;;4.95;4.60;;;31.50;20.80;;;;;;4817659;29;87000;-87
2021/04/04 13:20:31;;;;;;;4.93;4.53;;;31.80;21.00;;;;;;4818108;29;86847;-87
2021/04/04 13:22:56;;;;;;;5.40;5.00;;;31.70;20.70;;;;;;4816915;29;87783;-87
2021/04/04 13:25:22;;;;;;;4.40;4.10;;;31.40;21.00;;;;;;4817011;29;87076;-88
2021/04/04 13:27:49;;;;;;;5.13;4.70;;;31.70;20.90;;;;;;4818004;29;87421;-87
2021/04/04 13:30:27;;;;;;;4.85;4.43;;;31.70;20.90;;;;;;4816169;29;86862;-87
2021/04/04 13:32:53;;;;;;;4.97;4.53;;;31.60;20.90;;;;;;4815414;29;86638;-87
2021/04/04 13:35:35;;;;;;;4.63;4.25;;;31.60;20.90;;;;;;4815108;29;86895;-87
2021/04/04 13:38:03;;;;;;;4.68;4.35;;;31.60;20.80;;;;;;4815684;29;87021;-87
2021/04/04 13:40:34;;;;;;;5.10;4.60;;;32.10;20.70;;;;;;4815051;29;86074;-87
2021/04/04 13:43:06;;;;;;;4.68;4.38;;;31.50;20.90;;;;;;4811662;29;86813;-87
2021/04/04 13:45:34;;;;;;;5.03;4.60;;;31.30;20.90;;;;;;4795871;29;86966;-87
2021/04/04 13:48:00;;;;;;;4.63;4.32;;;31.00;21.00;;;;;;4813838;29;87857;-87
2021/04/04 13:50:37;;;;;;;4.65;4.25;;;30.50;21.20;;;;;;4815431;29;86594;-86
2021/04/04 13:53:19;;;;;;;4.82;4.43;;;30.90;21.30;;;;;;4814504;29;87389;-87
2021/04/04 13:55:47;;;;;;;4.55;4.10;;;31.00;21.70;;;;;;4815171;29;87682;-87
2021/04/04 13:58:34;;;;;;;4.13;3.03;;;30.90;21.30;;;;;;4814897;29;87428;-88
2021/04/04 14:01:00;;;;;;;4.60;4.30;;;31.00;20.80;;;;;;4814519;29;87045;-87
2021/04/04 14:03:31;;;;;;;5.35;4.85;;;30.20;21.40;;;;;;4814588;29;87172;-87
2021/04/04 14:06:10;;;;;;;4.60;4.30;;;29.80;21.50;;;;;;4816430;29;86396;-87
2021/04/04 14:08:37;;;;;;;4.27;4.07;;;29.30;21.10;;;;;;4797656;29;88398;-88
2021/04/04 14:11:04;;;;;;;5.47;4.28;;;29.40;21.10;;;;;;4814515;29;86939;-88
2021/04/04 14:13:30;;;;;;;4.40;4.10;;;29.40;21.60;;;;;;4809941;29;88132;-88
2021/04/04 14:15:56;;;;;;;4.10;3.80;;;29.00;22.00;;;;;;4814056;29;87243;-87
2021/04/04 14:18:48;;;;;;;4.50;4.20;;;28.80;21.40;;;;;;4815272;29;86926;-88
2021/04/04 14:21:13;;;;;;;4.10;3.90;;;28.70;21.80;;;;;;4812108;29;86819;-87
2021/04/04 14:23:39;;;;;;;3.92;3.72;;;28.30;21.60;;;;;;4811973;29;87093;-87
2021/04/04 14:26:06;;;;;;;4.50;4.10;;;28.20;22.00;;;;;;4806352;29;90708;-89
2021/04/04 14:28:33;;;;;;;4.63;4.22;;;28.10;22.60;;;;;;4813569;29;89265;-90
2021/04/04 14:31:00;;;;;;;4.65;4.35;;;27.50;22.70;;;;;;4815652;29;86283;-90
2021/04/04 14:33:26;;;;;;;6.22;4.50;;;27.10;22.60;;;;;;4807558;29;86915;-88
2021/04/04 14:35:53;;;;;;;4.20;3.90;;;26.70;22.90;;;;;;4815884;29;86943;-91
2021/04/04 14:38:21;;;;;;;4.40;4.10;;;26.00;23.60;;;;;;4797247;29;87799;-88
2021/04/04 14:40:48;;;;;;;4.45;4.05;;;25.50;24.10;;;;;;4795887;29;86737;-88
2021/04/04 14:45:56;;;;;;;6.25;4.30;;;24.30;23.80;;;;;;4812442;29;88140;-91
2021/04/04 14:48:22;;;;;;;4.30;4.00;;;;;;;;;;4819575;29;86802;-92
2021/04/04 14:50:49;;;;;;;5.07;4.03;;;24.40;23.60;;;;;;4816864;29;86899;-93
2021/04/04 14:53:15;;;;;;;4.90;3.92;;;24.40;24.00;;;;;;4815728;29;86308;-91
2021/04/04 14:55:41;;;;;;;4.20;3.90;;;;;;;;;;4816947;29;86138;-93
2021/04/04 14:58:07;;;;;;;4.30;3.90;;;;;;;;;;4800818;29;88041;-91
2021/04/04 15:00:33;;;;;;;4.00;3.63;;;24.20;24.10;;;;;;4815912;29;86878;-89
2021/04/04 15:02:59;;;;;;;3.80;3.53;;;23.90;24.30;;;;;;4813434;29;87667;-89
2021/04/04 15:05:24;;;;;;;4.05;3.63;;;23.60;24.80;;;;;;4813170;29;87888;-88
2021/04/04 15:07:50;;;;;;;4.75;3.60;;;23.50;24.40;;;;;;4812377;29;90001;-88
2021/04/04 15:10:16;;;;;;;4.32;3.65;;;23.20;24.20;;;;;;4812677;29;86645;-88
2021/04/04 15:12:41;;;;;;;4.55;4.25;;;23.00;24.70;;;;;;4816781;29;86924;-90
2021/04/04 15:15:08;;;;;;;4.45;4.05;;;22.20;25.10;;;;;;4813031;29;87034;-88
2021/04/04 15:17:33;;;;;;;4.30;3.90;;;22.10;24.40;;;;;;4812096;29;87418;-88
2021/04/04 15:20:00;;;;;;;4.43;4.05;;;21.90;25.40;;;;;;4814256;29;86180;-89
2021/04/04 15:22:26;;;;;;;4.20;3.80;;;21.70;25.00;;;;;;4798933;29;87007;-89
2021/04/04 15:24:51;;;;;;;4.35;3.95;;;21.50;25.50;;;;;;4812559;29;87932;-89
2021/04/04 15:27:17;;;;;;;3.03;2.70;;;21.40;25.50;;;;;;4812735;29;87905;-89
2021/04/04 15:29:43;;;;;;;4.35;4.00;;;21.20;26.40;;;;;;4814704;29;86921;-89
2021/04/04 15:32:08;;;;;;;4.10;3.80;;;21.00;26.00;;;;;;4811738;29;87113;-89
2021/04/04 15:34:34;;;;;;;4.35;3.83;;;;;;;;;;4812024;29;87745;-89
2021/04/04 15:37:00;;;;;;;4.30;4.00;;;20.30;26.10;;;;;;4779556;29;88389;-89
2021/04/04 15:39:26;;;;;;;5.00;4.05;;;20.10;26.10;;;;;;4808007;29;87979;-89
2021/04/04 15:41:51;;;;;;;3.75;3.53;;;19.90;26.20;;;;;;4814257;29;86709;-90
2021/04/04 15:44:18;;;;;;;4.30;3.90;;;19.60;26.20;;;;;;4795270;29;89802;-89
2021/04/04 15:46:44;;;;;;;3.50;3.30;;;19.30;26.60;;;;;;4813081;29;88853;-89
2021/04/04 15:49:09;;;;;;;3.50;3.20;;;18.90;27.50;;;;;;4816284;29;86980;-89
2021/04/04 15:51:35;;;;;;;4.25;3.83;;;18.70;27.10;;;;;;4815485;29;88001;-89
2021/04/04 15:54:01;;;;;;;3.63;3.38;;;18.70;27.90;;;;;;4813936;29;87288;-89
2021/04/04 15:56:27;;;;;;;4.20;3.80;;;18.50;27.20;;;;;;4813516;29;88142;-88
2021/04/04 15:58:53;;;;;;;4.10;3.67;;;18.60;26.80;;;;;;4817834;29;86958;-87
2021/04/04 16:01:18;;;;;;;5.97;4.53;;;18.60;27.00;;;;;;4815423;29;86875;-89
2021/04/04 16:03:44;;;;;;;4.07;3.67;;;18.60;28.10;;;;;;4814374;29;87297;-88
2021/04/04 16:06:10;;;;;;;3.83;3.53;;;18.50;27.30;;;;;;4805352;29;87025;-88
2021/04/04 16:08:35;;;;;;;5.72;3.90;;;18.40;27.70;;;;;;4813616;29;86242;-89
2021/04/04 16:11:06;;;;;;;4.30;3.90;;;18.30;27.80;;;;;;4812676;29;87061;-90
2021/04/04 16:13:32;;;;;;;4.55;4.03;;;18.10;28.60;;;;;;4813688;29;87633;-88
2021/04/04 16:15:58;;;;;;;4.45;3.70;;;18.00;28.60;;;;;;4794453;29;88829;-88
2021/04/04 16:18:25;;;;;;;4.97;3.95;;;17.80;29.20;;;;;;4796063;29;86786;-88
2021/04/04 16:20:51;;;;;;;4.88;4.40;;;17.60;28.60;;;;;;4811315;29;87249;-87
2021/04/04 16:23:16;;;;;;;4.18;3.78;;;17.30;29.30;;;;;;4811801;29;87776;-89
2021/04/04 16:25:42;;;;;;;6.20;3.72;;;;;;;;;;4801055;29;88681;-87
2021/04/04 16:28:10;;;;;;;5.97;3.85;;;17.10;29.10;;;;;;4815118;29;86883;-88
2021/04/04 16:30:36;;;;;;;6.45;4.60;;;17.00;29.60;;;;;;4813268;29;86903;-88
2021/04/04 16:33:04;;;;;;;8.00;5.38;;;16.90;29.60;;;;;;4820619;29;86099;-87
2021/04/04 16:35:30;;;;;;;7.68;5.22;;;16.70;30.50;;;;;;4800828;29;87226;-90
2021/04/04 16:38:05;;;;;;;9.02;6.10;;;16.60;30.10;;;;;;4806020;29;86981;-91
2021/04/04 16:40:33;;;;;;;7.65;5.32;;;16.40;30.50;;;;;;4802375;29;88153;-90
2021/04/04 16:43:00;;;;;;;8.02;4.80;;;16.10;30.40;;;;;;4822362;29;87653;-89
2021/04/04 16:45:27;;;;;;;12.13;5.47;;;16.00;30.90;;;;;;4821892;29;87561;-90
2021/04/04 16:47:52;;;;;;;11.50;5.88;;;15.90;31.20;;;;;;4805310;29;86914;-91
2021/04/04 16:50:19;;;;;;;7.88;4.40;;;15.80;31.30;;;;;;4805778;29;86399;-88
2021/04/04 16:52:44;;;;;;;6.05;4.28;;;15.70;31.30;;;;;;4814895;29;88657;-89
2021/04/04 16:55:11;;;;;;;4.63;3.60;;;15.50;31.70;;;;;;4818941;29;86834;-88
2021/04/04 16:57:37;;;;;;;5.32;3.95;;;15.50;32.20;;;;;;4818112;29;86367;-88
2021/04/04 17:00:11;;;;;;;4.07;3.70;;;15.30;31.90;;;;;;4798499;29;88234;-86
2021/04/04 17:02:38;;;;;;;4.82;3.67;;;15.20;32.20;;;;;;4789783;29;88736;-89
2021/04/04 17:05:10;;;;;;;4.80;4.40;;;15.10;32.10;;;;;;4819102;29;89414;-86
2021/04/04 17:07:36;;;;;;;4.20;3.80;;;14.90;32.70;;;;;;4823389;29;87047;-86
2021/04/04 17:10:05;;;;;;;4.60;3.75;;;14.80;33.10;;;;;;4818761;29;87139;-88
2021/04/04 17:12:31;;;;;;;4.63;3.78;;;14.60;33.30;;;;;;4817333;29;87278;-89
2021/04/04 17:14:57;;;;;;;4.60;3.90;;;14.20;33.40;;;;;;4815352;29;87513;-85
2021/04/04 17:17:22;;;;;;;6.68;4.18;;;14.20;33.70;;;;;;4817151;29;86822;-87
2021/04/04 17:19:48;;;;;;;3.88;3.40;;;14.10;34.00;;;;;;4823025;29;87093;-86
2021/04/04 17:22:14;;;;;;;4.18;3.70;;;14.00;34.20;;;;;;4818576;29;86553;-86
2021/04/04 17:24:41;;;;;;;6.45;4.15;;;13.90;33.80;;;;;;4815111;29;87162;-88
2021/04/04 17:27:07;;;;;;;7.05;4.38;;;13.80;34.10;;;;;;4819283;29;86708;-86
2021/04/04 17:29:33;;;;;;;5.35;3.92;;;13.60;34.60;;;;;;4828867;29;87802;-88
2021/04/04 17:31:59;;;;;;;4.85;4.00;;;;;;;;;;4820730;29;87014;-88
2021/04/04 17:34:24;;;;;;;4.43;4.00;;;13.30;35.00;;;;;;4808460;29;87555;-87
2021/04/04 17:36:50;;;;;;;4.90;3.63;;;13.00;36.10;;;;;;4816544;29;86809;-88
2021/04/04 17:39:16;;;;;;;4.45;4.05;;;12.80;36.50;;;;;;4819660;29;86865;-88
2021/04/04 17:41:42;;;;;;;5.65;4.10;;;12.70;36.70;;;;;;4817468;29;86950;-88
2021/04/04 17:44:09;;;;;;;5.35;4.32;;;12.50;37.00;;;;;;4823797;29;87908;-91
2021/04/04 17:46:36;;;;;;;4.80;4.30;;;;;;;;;;4821636;29;85820;-90